Time;durP1;ratioP1;P1;durP2;ratioP2;P2;SDS_P1;SDS_P2;PMS_P1;PMS_P2;Temp;Humidity;BMP_temperature;BMP_pressure;BME280_temperature;BME280_humidity;BME280_pressure;Samples;Min_cycle;Max_cycle;Signal;HPM_P1;HPM_P2
2022/04/20 00:01:12;;;;;;;17.85;15.77;;;230.50;2252.80;;;;;;4826904;29;20103;-73
2022/04/20 00:03:38;;;;;;;17.10;15.30;;;230.50;2252.80;;;;;;4826911;29;20061;-76
2022/04/20 00:06:05;;;;;;;19.02;15.18;;;230.50;2252.80;;;;;;4827088;29;20409;-75
2022/04/20 00:08:32;;;;;;;18.30;16.25;;;230.60;2252.80;;;;;;4810566;29;20602;-73
2022/04/20 00:10:58;;;;;;;18.15;16.30;;;230.70;2252.80;;;;;;4826661;29;20041;-74
2022/04/20 00:13:24;;;;;;;18.55;15.15;;;230.80;2252.80;;;;;;4826633;29;20035;-73
2022/04/20 00:15:50;;;;;;;17.73;15.90;;;230.80;2252.80;;;;;;4810377;29;20087;-73
2022/04/20 00:18:16;;;;;;;18.05;15.32;;;230.80;2252.80;;;;;;4826618;29;20034;-73
2022/04/20 00:20:42;;;;;;;21.88;15.82;;;230.80;2252.80;;;;;;4826869;29;20042;-73
2022/04/20 00:23:08;;;;;;;20.42;16.40;;;230.80;2252.80;;;;;;4826864;29;20034;-72
2022/04/20 00:25:34;;;;;;;17.70;15.68;;;230.80;2252.80;;;;;;4826529;29;20389;-73
2022/04/20 00:28:00;;;;;;;18.58;15.90;;;230.80;2252.80;;;;;;4826817;29;20042;-73
2022/04/20 00:30:26;;;;;;;17.67;15.80;;;230.70;2252.80;;;;;;4810100;29;20042;-73
2022/04/20 00:32:52;;;;;;;17.75;15.32;;;230.80;2252.80;;;;;;4826116;29;20069;-73
2022/04/20 00:35:18;;;;;;;19.15;17.13;;;230.80;2252.80;;;;;;4826557;29;20472;-73
2022/04/20 00:37:44;;;;;;;18.75;15.75;;;230.70;2252.80;;;;;;4826380;29;20034;-74
2022/04/20 00:40:11;;;;;;;19.90;17.58;;;230.80;2252.80;;;;;;4809991;29;20035;-73
2022/04/20 00:42:40;;;;;;;18.23;16.08;;;230.50;2252.80;;;;;;4826251;29;20030;-73
2022/04/20 00:45:08;;;;;;;18.35;16.42;;;230.60;2252.80;;;;;;4826511;29;20033;-75
2022/04/20 00:47:37;;;;;;;18.25;15.65;;;230.60;2252.80;;;;;;4826208;29;20027;-73
2022/04/20 00:50:04;;;;;;;16.88;15.13;;;230.80;2252.80;;;;;;4826095;29;20034;-75
2022/04/20 00:52:30;;;;;;;17.38;15.55;;;230.80;2252.80;;;;;;4826017;29;20030;-74
2022/04/20 00:54:56;;;;;;;18.45;15.30;;;230.80;2252.80;;;;;;4826113;29;20491;-73
2022/04/20 00:57:22;;;;;;;17.95;16.08;;;230.60;2252.80;;;;;;4826074;29;20499;-73
2022/04/20 00:59:50;;;;;;;18.05;15.82;;;230.40;2252.80;;;;;;4826290;29;20079;-72
2022/04/20 01:02:16;;;;;;;18.73;16.58;;;230.40;2252.80;;;;;;4826022;29;20413;-74
2022/04/20 01:04:42;;;;;;;21.15;16.10;;;230.60;2252.80;;;;;;4809468;29;20041;-73
2022/04/20 01:07:11;;;;;;;18.02;15.30;;;230.60;2252.80;;;;;;4825087;29;20073;-73
2022/04/20 01:09:38;;;;;;;18.55;16.58;;;230.70;2252.80;;;;;;4825765;29;20481;-73
2022/04/20 01:12:06;;;;;;;17.67;15.77;;;230.70;2252.80;;;;;;4825822;29;20031;-73
2022/04/20 01:14:31;;;;;;;18.40;16.13;;;230.70;2252.80;;;;;;4825666;29;20054;-75
2022/04/20 01:16:57;;;;;;;20.40;17.15;;;230.60;2252.80;;;;;;4825721;29;20045;-73
2022/04/20 01:19:34;;;;;;;20.02;16.70;;;230.40;2252.80;;;;;;4825676;29;20038;-72
2022/04/20 01:22:01;;;;;;;17.63;15.43;;;230.40;2252.80;;;;;;4825651;29;20035;-72
2022/04/20 01:24:28;;;;;;;18.92;16.52;;;230.50;2252.80;;;;;;4825570;29;20038;-72
2022/04/20 01:26:53;;;;;;;20.83;16.73;;;230.60;2252.80;;;;;;4809440;29;20452;-73
2022/04/20 01:29:20;;;;;;;20.58;16.42;;;230.70;2252.80;;;;;;4825874;29;20113;-72
2022/04/20 01:31:46;;;;;;;19.10;15.80;;;230.70;2252.80;;;;;;4808947;29;20138;-72
2022/04/20 01:34:11;;;;;;;18.50;15.85;;;230.70;2252.80;;;;;;4808976;29;20158;-73
2022/04/20 01:36:37;;;;;;;18.05;15.18;;;230.70;2252.80;;;;;;4825432;29;20038;-73
2022/04/20 01:39:03;;;;;;;25.92;15.18;;;230.70;2252.80;;;;;;4825484;29;20042;-73
2022/04/20 01:41:29;;;;;;;18.08;15.07;;;230.80;2252.80;;;;;;4825355;29;20035;-72
2022/04/20 01:43:55;;;;;;;19.63;15.25;;;230.70;2252.80;;;;;;4825287;29;20027;-74
2022/04/20 01:46:22;;;;;;;17.13;15.02;;;230.80;2252.80;;;;;;4825354;29;20125;-73
2022/04/20 01:48:48;;;;;;;15.80;14.18;;;230.80;2252.80;;;;;;4825307;29;20547;-73
2022/04/20 01:53:58;;;;;;;15.75;14.05;;;230.70;2252.80;;;;;;4825286;29;20057;-74
2022/04/20 01:56:24;;;;;;;15.93;14.20;;;230.70;2252.80;;;;;;4825181;29;20026;-73
2022/04/20 01:58:50;;;;;;;19.48;14.10;;;230.60;2252.80;;;;;;4825160;29;20392;-75
2022/04/20 02:04:00;;;;;;;16.60;14.90;;;230.40;2252.80;;;;;;4825398;29;20487;-73
2022/04/20 02:06:25;;;;;;;15.02;13.43;;;205.70;2252.80;;;;;;4825110;29;20026;-73
2022/04/20 02:08:51;;;;;;;16.10;14.32;;;205.70;2252.80;;;;;;4825328;29;20451;-73
2022/04/20 02:11:17;;;;;;;15.10;13.60;;;230.40;2252.80;;;;;;4824968;29;20030;-73
2022/04/20 02:13:43;;;;;;;18.05;14.73;;;205.60;2252.80;;;;;;4824865;29;20035;-79
2022/04/20 02:16:09;;;;;;;21.60;13.13;;;205.60;2252.80;;;;;;4824920;29;20027;-73
2022/04/20 02:18:35;;;;;;;16.08;14.38;;;205.70;2252.80;;;;;;4824807;29;20034;-73
2022/04/20 02:21:00;;;;;;;15.13;13.52;;;205.60;2252.80;;;;;;4824869;29;20531;-79
2022/04/20 02:23:26;;;;;;;15.13;13.05;;;205.70;2252.80;;;;;;4825145;29;20034;-73
2022/04/20 02:25:53;;;;;;;16.02;13.00;;;230.40;2252.80;;;;;;4824484;29;20035;-75
2022/04/20 02:28:19;;;;;;;15.77;13.85;;;230.60;2252.80;;;;;;4808107;29;20506;-73
2022/04/20 02:30:45;;;;;;;18.23;13.85;;;230.60;2252.80;;;;;;4824779;29;20034;-74
2022/04/20 02:33:11;;;;;;;17.52;12.98;;;230.70;2252.80;;;;;;4824535;29;20058;-73
2022/04/20 02:35:37;;;;;;;16.00;13.27;;;230.60;2252.80;;;;;;4824608;29;20027;-73
2022/04/20 02:38:03;;;;;;;14.73;12.80;;;230.70;2252.80;;;;;;4824638;29;20030;-73
2022/04/20 02:40:31;;;;;;;15.85;12.95;;;230.60;2252.80;;;;;;4824702;29;20113;-73
2022/04/20 02:42:57;;;;;;;14.48;13.05;;;230.60;2252.80;;;;;;4824881;29;20038;-73
2022/04/20 02:45:23;;;;;;;14.48;12.27;;;230.70;2252.80;;;;;;4824615;29;20049;-73
2022/04/20 02:47:49;;;;;;;14.40;12.85;;;230.70;2252.80;;;;;;4824527;29;20060;-74
2022/04/20 02:50:15;;;;;;;16.92;13.38;;;230.70;2252.80;;;;;;4824510;29;20027;-73
2022/04/20 02:52:41;;;;;;;16.77;14.05;;;230.70;2252.80;;;;;;4824368;29;20045;-73
2022/04/20 02:55:07;;;;;;;19.02;14.45;;;230.70;2252.80;;;;;;4824607;29;20033;-73
2022/04/20 02:57:34;;;;;;;17.63;15.10;;;230.70;2252.80;;;;;;4824465;29;20062;-73
2022/04/20 03:00:00;;;;;;;18.27;16.00;;;230.60;2252.80;;;;;;4824431;29;20030;-74
2022/04/20 03:02:25;;;;;;;22.10;17.67;;;230.60;2252.80;;;;;;4824408;29;20095;-74
2022/04/20 03:04:51;;;;;;;27.38;19.67;;;230.60;2252.80;;;;;;4824504;29;20026;-73
2022/04/20 03:07:17;;;;;;;25.90;17.25;;;230.60;2252.80;;;;;;4824618;29;20022;-74
2022/04/20 03:09:43;;;;;;;20.65;17.45;;;230.60;2252.80;;;;;;4824325;29;20029;-74
2022/04/20 03:12:10;;;;;;;24.80;20.40;;;230.60;2252.80;;;;;;4824289;29;20516;-73
2022/04/20 03:14:36;;;;;;;25.65;21.27;;;230.60;2252.80;;;;;;4824214;29;20121;-73
2022/04/20 03:17:02;;;;;;;33.85;24.02;;;230.50;2252.80;;;;;;4824261;29;20068;-75
2022/04/20 03:19:28;;;;;;;35.47;24.15;;;230.50;2252.80;;;;;;4824256;29;20038;-75
2022/04/20 03:21:54;;;;;;;41.45;26.25;;;230.40;2252.80;;;;;;4824279;29;20496;-73
2022/04/20 03:24:19;;;;;;;39.47;25.45;;;230.40;2252.80;;;;;;4824444;29;20037;-74
2022/04/20 03:26:46;;;;;;;37.22;25.45;;;230.40;2252.80;;;;;;4824142;29;20033;-75
2022/04/20 03:29:11;;;;;;;36.55;24.90;;;230.40;2252.80;;;;;;4825344;29;20030;-73
2022/04/20 03:31:40;;;;;;;35.63;23.90;;;230.40;2252.80;;;;;;4827424;29;20057;-76
2022/04/20 03:34:06;;;;;;;33.70;25.02;;;230.40;2252.80;;;;;;4827877;29;20034;-75
2022/04/20 03:36:33;;;;;;;37.80;23.70;;;230.40;2252.80;;;;;;4827261;29;20117;-73
2022/04/20 03:39:00;;;;;;;37.65;24.65;;;230.40;2252.80;;;;;;4827306;29;20027;-76
2022/04/20 03:41:26;;;;;;;34.88;23.23;;;230.40;2252.80;;;;;;4827237;29;20426;-75
2022/04/20 03:43:52;;;;;;;36.67;24.30;;;230.40;2252.80;;;;;;4827565;29;20105;-76
2022/04/20 03:46:18;;;;;;;31.80;22.05;;;230.40;2252.80;;;;;;4827181;29;20543;-74
2022/04/20 03:48:45;;;;;;;26.50;22.70;;;230.40;2252.80;;;;;;4827431;29;20480;-74
2022/04/20 03:51:11;;;;;;;25.02;21.15;;;205.70;2252.80;;;;;;4827142;29;20037;-74
2022/04/20 03:53:37;;;;;;;23.35;20.52;;;205.70;2252.80;;;;;;4826963;29;20038;-74
2022/04/20 03:56:03;;;;;;;24.30;21.63;;;205.70;2252.80;;;;;;4827303;29;20080;-77
2022/04/20 03:58:29;;;;;;;26.77;22.10;;;205.60;2252.80;;;;;;4810746;29;20030;-73
2022/04/20 04:00:55;;;;;;;27.10;22.38;;;205.60;2252.80;;;;;;4826963;29;20023;-73
2022/04/20 04:03:21;;;;;;;22.60;20.20;;;205.60;2252.80;;;;;;4827250;29;20026;-73
2022/04/20 04:05:47;;;;;;;24.45;21.70;;;205.60;2252.80;;;;;;4810611;29;20049;-75
2022/04/20 04:08:13;;;;;;;24.55;21.92;;;205.60;2252.80;;;;;;4826852;29;20047;-76
2022/04/20 04:10:39;;;;;;;24.92;22.38;;;205.70;2252.80;;;;;;4810622;29;20023;-75
2022/04/20 04:13:06;;;;;;;24.92;22.33;;;205.60;2252.80;;;;;;4826682;29;20480;-73
2022/04/20 04:15:33;;;;;;;25.20;22.38;;;205.70;2252.80;;;;;;4826665;29;20026;-73
2022/04/20 04:17:59;;;;;;;25.73;23.08;;;205.70;2252.80;;;;;;4826735;29;20026;-73
2022/04/20 04:20:26;;;;;;;27.52;23.92;;;205.60;2252.80;;;;;;4826462;29;20028;-73
2022/04/20 04:22:53;;;;;;;27.85;25.00;;;205.70;2252.80;;;;;;4827148;29;20022;-73
2022/04/20 04:25:19;;;;;;;27.60;24.63;;;205.60;2252.80;;;;;;4826662;29;20090;-73
2022/04/20 04:27:45;;;;;;;27.38;24.48;;;205.60;2252.80;;;;;;4826512;29;20517;-77
2022/04/20 04:30:11;;;;;;;25.50;22.88;;;205.60;2252.80;;;;;;4826490;29;20507;-73
2022/04/20 04:32:37;;;;;;;27.40;23.85;;;205.50;2252.80;;;;;;4826307;29;20061;-74
2022/04/20 04:35:03;;;;;;;34.17;29.30;;;205.50;2252.80;;;;;;4810072;29;20035;-73
2022/04/20 04:37:29;;;;;;;61.72;42.83;;;205.50;2252.80;;;;;;4826391;29;20046;-74
2022/04/20 04:39:56;;;;;;;44.42;35.58;;;205.50;2252.80;;;;;;4826439;29;20118;-74
2022/04/20 04:42:22;;;;;;;30.83;27.02;;;205.60;2252.80;;;;;;4825398;29;20501;-74
2022/04/20 04:44:48;;;;;;;30.63;26.10;;;205.60;2252.80;;;;;;4826839;29;20114;-75
2022/04/20 04:49:59;;;;;;;34.80;28.10;;;205.60;2252.80;;;;;;4826602;29;20046;-74
2022/04/20 04:52:25;;;;;;;27.17;24.30;;;205.60;2252.80;;;;;;4826094;29;20046;-78
2022/04/20 04:54:51;;;;;;;29.83;26.52;;;205.60;2252.80;;;;;;4809800;29;20034;-73
2022/04/20 04:57:16;;;;;;;33.20;29.58;;;205.60;2252.80;;;;;;4826129;29;20129;-73
2022/04/20 04:59:43;;;;;;;50.13;40.95;;;205.70;2252.80;;;;;;4826118;29;20038;-73
2022/04/20 05:02:10;;;;;;;35.15;30.67;;;205.70;2252.80;;;;;;4809636;29;20027;-73
2022/04/20 05:04:37;;;;;;;33.88;28.75;;;205.70;2252.80;;;;;;4825979;29;20384;-77
2022/04/20 05:07:04;;;;;;;33.88;29.02;;;205.70;2252.80;;;;;;4825903;29;20037;-76
2022/04/20 05:09:30;;;;;;;30.77;27.33;;;205.60;2252.80;;;;;;4810004;29;20023;-73
2022/04/20 05:11:56;;;;;;;35.05;28.05;;;205.60;2252.80;;;;;;4825835;29;20034;-76
2022/04/20 05:14:22;;;;;;;38.88;31.40;;;205.70;2252.80;;;;;;4826040;29;20129;-74
2022/04/20 05:16:49;;;;;;;35.72;30.98;;;205.60;2252.80;;;;;;4809381;29;20113;-74
2022/04/20 05:19:15;;;;;;;35.58;29.23;;;205.60;2252.80;;;;;;4825715;29;20030;-74
2022/04/20 05:21:41;;;;;;;33.95;29.58;;;205.60;2252.80;;;;;;4825716;29;20106;-73
2022/04/20 05:24:07;;;;;;;41.55;32.33;;;205.60;2252.80;;;;;;4825705;29;20117;-74
2022/04/20 05:26:34;;;;;;;39.70;31.92;;;205.60;2252.80;;;;;;4809261;29;20035;-73
2022/04/20 05:29:00;;;;;;;35.95;29.55;;;205.60;2252.80;;;;;;4825612;29;20480;-74
2022/04/20 05:31:25;;;;;;;31.52;27.48;;;205.50;2252.80;;;;;;4825489;29;20041;-75
2022/04/20 05:33:51;;;;;;;37.75;29.17;;;205.50;2252.80;;;;;;4825507;29;20034;-73
2022/04/20 05:36:18;;;;;;;35.20;30.58;;;205.40;2252.80;;;;;;4825522;29;20026;-77
2022/04/20 05:41:41;;;;;;;36.15;29.88;;;205.40;2252.80;;;;;;4825760;29;20037;-73
2022/04/20 05:44:11;;;;;;;34.60;30.83;;;205.40;2252.80;;;;;;4808946;29;20537;-72
2022/04/20 05:46:39;;;;;;;42.63;32.08;;;205.40;2252.80;;;;;;4825381;29;20034;-76
2022/04/20 05:49:05;;;;;;;37.95;31.42;;;205.40;2252.80;;;;;;4825418;29;20095;-78
2022/04/20 05:51:32;;;;;;;36.70;31.27;;;205.40;2252.80;;;;;;4825118;29;20031;-72
2022/04/20 05:53:58;;;;;;;39.35;34.13;;;205.40;2252.80;;;;;;4825098;29;20118;-73
2022/04/20 05:56:24;;;;;;;32.17;28.55;;;205.50;2252.80;;;;;;4825500;29;20026;-77
2022/04/20 05:58:52;;;;;;;29.30;25.02;;;205.50;2252.80;;;;;;4825413;29;20090;-71
2022/04/20 06:01:22;;;;;;;30.75;26.55;;;205.60;2252.80;;;;;;4825551;29;20027;-70
2022/04/20 06:03:48;;;;;;;35.00;31.02;;;205.50;2252.80;;;;;;4825045;29;20484;-72
2022/04/20 06:06:14;;;;;;;29.15;26.02;;;205.50;2252.80;;;;;;4825374;29;20045;-77
2022/04/20 06:08:41;;;;;;;28.45;25.38;;;205.60;2252.80;;;;;;4824943;29;20034;-75
2022/04/20 06:11:07;;;;;;;29.92;25.48;;;205.50;2252.80;;;;;;4824978;29;20094;-75
2022/04/20 06:13:33;;;;;;;30.33;25.00;;;205.50;2252.80;;;;;;4824945;29;20411;-78
2022/04/20 06:15:59;;;;;;;26.17;21.92;;;205.50;2252.80;;;;;;4808494;29;20034;-77
2022/04/20 06:18:25;;;;;;;27.55;24.00;;;205.50;2252.80;;;;;;4825049;29;20034;-72
2022/04/20 06:20:54;;;;;;;33.88;25.75;;;205.50;2252.80;;;;;;4824841;29;20516;-74
2022/04/20 06:23:22;;;;;;;26.13;22.75;;;205.70;2252.80;;;;;;4824826;29;20035;-73
2022/04/20 06:25:48;;;;;;;28.27;24.02;;;230.40;2252.80;;;;;;4823838;29;20030;-78
2022/04/20 06:28:14;;;;;;;28.30;25.13;;;230.60;2252.80;;;;;;4824320;29;20034;-72
2022/04/20 06:30:40;;;;;;;28.30;24.80;;;230.60;2252.80;;;;;;4824517;29;20082;-74
2022/04/20 06:33:06;;;;;;;26.60;23.13;;;230.70;2252.80;;;;;;4824363;29;20513;-73
2022/04/20 06:35:32;;;;;;;26.00;23.15;;;230.90;2252.80;;;;;;4824582;29;20065;-73
2022/04/20 06:37:57;;;;;;;29.45;23.20;;;231.00;2252.80;;;;;;4820664;29;20035;-72
2022/04/20 06:40:23;;;;;;;27.75;23.90;;;231.10;2252.80;;;;;;4806181;29;20031;-74
2022/04/20 06:42:49;;;;;;;24.92;21.63;;;231.20;2252.80;;;;;;4806430;29;20031;-71
2022/04/20 06:45:15;;;;;;;23.10;20.65;;;231.30;2252.80;;;;;;4806391;29;20506;-73
2022/04/20 06:47:41;;;;;;;23.02;19.40;;;256.00;2252.80;;;;;;4806058;29;20603;-72
2022/04/20 06:50:07;;;;;;;20.98;18.83;;;231.30;2252.80;;;;;;4814394;29;20041;-74
2022/04/20 07:00:45;;;;;;;17.20;15.40;;;231.30;2252.80;;;;;;4806489;29;20000;-74
2022/04/20 07:03:11;;;;;;;19.38;17.27;;;231.30;2252.80;;;;;;4789868;29;20122;-71
2022/04/20 07:05:36;;;;;;;26.27;21.30;;;231.20;2252.80;;;;;;4808968;29;20034;-74
2022/04/20 07:08:03;;;;;;;23.77;18.58;;;231.20;2252.80;;;;;;4809713;29;20027;-72
2022/04/20 07:10:31;;;;;;;23.88;20.00;;;231.20;2252.80;;;;;;4809863;29;20042;-72
2022/04/20 07:12:56;;;;;;;17.63;15.77;;;256.00;2252.80;;;;;;4809783;29;20046;-73
2022/04/20 07:15:25;;;;;;;19.00;17.08;;;231.30;2252.80;;;;;;4809570;29;20421;-73
2022/04/20 07:17:50;;;;;;;18.55;16.55;;;231.30;2252.80;;;;;;4809503;29;20396;-69
2022/04/20 07:20:19;;;;;;;22.60;18.42;;;231.30;2252.80;;;;;;4793357;29;20031;-75
2022/04/20 07:22:49;;;;;;;19.55;16.63;;;256.00;2252.80;;;;;;4793175;29;20023;-73
2022/04/20 07:25:18;;;;;;;31.63;24.00;;;256.00;2252.80;;;;;;4809365;29;20116;-73
2022/04/20 07:27:48;;;;;;;27.40;20.10;;;256.00;2252.80;;;;;;4793179;29;20042;-73
2022/04/20 07:30:15;;;;;;;23.15;18.85;;;256.00;2252.80;;;;;;4809465;29;20037;-72
2022/04/20 07:32:41;;;;;;;18.02;16.13;;;256.00;2252.80;;;;;;4817108;29;20488;-71
2022/04/20 07:35:07;;;;;;;17.80;15.98;;;256.00;2252.80;;;;;;4810998;29;20041;-72
2022/04/20 07:37:33;;;;;;;18.35;15.80;;;256.10;2252.80;;;;;;4810896;29;20026;-71
2022/04/20 07:39:59;;;;;;;27.70;22.00;;;256.20;2252.80;;;;;;4827160;29;20118;-75
2022/04/20 07:42:25;;;;;;;20.17;17.27;;;256.40;2252.80;;;;;;4827205;29;20377;-72
2022/04/20 07:44:56;;;;;;;18.95;16.98;;;256.60;2252.80;;;;;;4827098;29;20041;-74
2022/04/20 07:47:24;;;;;;;20.42;16.83;;;256.80;2252.80;;;;;;4827089;29;20022;-74
2022/04/20 07:52:40;;;;;;;15.80;13.95;;;281.70;2278.40;;;;;;4827225;29;20042;-74
2022/04/20 07:55:14;;;;;;;17.77;14.48;;;281.90;2278.40;;;;;;4827036;29;20060;-74
2022/04/20 07:57:43;;;;;;;16.85;14.10;;;282.10;2278.40;;;;;;4826536;29;20022;-75
2022/04/20 08:00:10;;;;;;;16.48;13.85;;;282.20;2278.40;;;;;;4809920;29;20121;-76
2022/04/20 08:02:36;;;;;;;15.80;13.85;;;282.40;2278.40;;;;;;4826107;29;20083;-75
2022/04/20 08:05:02;;;;;;;25.35;17.38;;;307.30;2304.00;;;;;;4825288;29;20433;-75
2022/04/20 08:07:28;;;;;;;21.67;14.77;;;307.50;2304.00;;;;;;4826872;29;20080;-75
2022/04/20 08:09:54;;;;;;;21.73;16.05;;;308.00;2304.00;;;;;;4826767;29;20397;-75
2022/04/20 08:12:20;;;;;;;18.58;13.40;;;332.90;2329.60;;;;;;4826879;29;20106;-74
2022/04/20 08:14:46;;;;;;;13.75;11.45;;;333.10;2329.60;;;;;;4826626;29;20081;-75
2022/04/20 08:17:12;;;;;;;13.25;11.32;;;333.20;2329.60;;;;;;4826825;29;20054;-74
2022/04/20 08:19:38;;;;;;;12.48;11.18;;;333.30;2329.60;;;;;;4825463;29;20061;-74
2022/04/20 08:22:04;;;;;;;11.90;10.55;;;333.30;2329.60;;;;;;4826550;29;20070;-74
2022/04/20 08:24:30;;;;;;;12.27;10.75;;;333.40;2329.60;;;;;;4826623;29;20595;-74
2022/04/20 08:26:56;;;;;;;12.25;10.60;;;333.60;2329.60;;;;;;4825303;29;20563;-75
2022/04/20 08:29:22;;;;;;;11.82;9.73;;;358.70;2329.60;;;;;;4825253;29;20113;-73
2022/04/20 08:31:48;;;;;;;16.35;10.63;;;358.90;2329.60;;;;;;4826255;29;20489;-73
2022/04/20 08:34:13;;;;;;;12.63;10.40;;;359.10;2329.60;;;;;;4826373;29;20042;-74
2022/04/20 08:36:39;;;;;;;11.85;9.68;;;359.00;2329.60;;;;;;4825054;29;20026;-74
2022/04/20 08:39:05;;;;;;;10.80;9.70;;;359.00;2278.40;;;;;;4825840;29;20031;-75
2022/04/20 08:41:31;;;;;;;11.23;9.88;;;358.90;2304.00;;;;;;4824917;29;20026;-75
2022/04/20 08:44:00;;;;;;;10.80;9.27;;;358.90;2304.00;;;;;;4809889;29;20066;-74
2022/04/20 08:46:27;;;;;;;12.65;8.80;;;359.20;2278.40;;;;;;4825463;29;20488;-74
2022/04/20 08:48:53;;;;;;;10.65;9.27;;;409.60;2201.60;;;;;;4825622;29;20035;-75
2022/04/20 08:51:19;;;;;;;10.30;9.13;;;409.90;2048.00;;;;;;4825970;29;20031;-74
2022/04/20 08:53:45;;;;;;;12.32;9.27;;;410.30;2073.60;;;;;;4825691;29;20072;-75
2022/04/20 08:58:57;;;;;;;10.50;9.38;;;409.90;1945.60;;;;;;4825481;29;20499;-74
2022/04/20 09:01:26;;;;;;;15.15;11.20;;;384.80;1996.80;;;;;;4825548;29;20472;-74
2022/04/20 09:03:54;;;;;;;11.75;9.88;;;409.80;1996.80;;;;;;4818183;29;20396;-74
2022/04/20 09:06:19;;;;;;;16.65;9.32;;;410.40;1945.60;;;;;;4799960;29;20018;-75
2022/04/20 09:08:45;;;;;;;10.77;9.65;;;410.10;1945.60;;;;;;4815568;29;20438;-75
2022/04/20 09:11:11;;;;;;;17.05;11.55;;;409.70;1971.20;;;;;;4814528;29;20026;-74
2022/04/20 09:13:41;;;;;;;10.48;9.48;;;384.70;1945.60;;;;;;4800858;29;20498;-75
2022/04/20 09:16:12;;;;;;;10.80;9.50;;;384.40;1996.80;;;;;;4816669;29;20068;-74
2022/04/20 09:18:43;;;;;;;46.67;37.15;;;384.30;2022.40;;;;;;4817007;29;20093;-75
2022/04/20 09:21:16;;;;;;;15.48;12.10;;;384.80;1945.60;;;;;;4816946;29;20031;-74
2022/04/20 09:23:42;;;;;;;15.23;13.73;;;409.60;1843.20;;;;;;4802311;29;20046;-74
2022/04/20 09:26:15;;;;;;;9.88;8.88;;;384.80;1894.40;;;;;;4825485;29;20026;-74
2022/04/20 09:29:01;;;;;;;14.20;12.55;;;384.70;1868.80;;;;;;4825044;29;20034;-74
2022/04/20 09:31:52;;;;;;;47.53;38.58;;;384.70;1868.80;;;;;;4825316;29;20069;-74
2022/04/20 09:37:15;;;;;;;12.68;10.02;;;409.70;1843.20;;;;;;4806573;29;20042;-74
2022/04/20 09:39:46;;;;;;;11.00;8.45;;;384.90;1843.20;;;;;;4806352;29;20444;-74
2022/04/20 09:42:12;;;;;;;12.85;8.75;;;384.50;1817.60;;;;;;4806331;29;20055;-74
2022/04/20 09:44:51;;;;;;;22.45;10.50;;;384.20;1868.80;;;;;;4806248;29;20046;-75
2022/04/20 09:50:06;;;;;;;15.13;13.32;;;358.90;1817.60;;;;;;4818512;29;20404;-74
2022/04/20 09:52:47;;;;;;;12.65;8.73;;;358.60;1894.40;;;;;;4824296;29;20110;-75
2022/04/20 09:55:31;;;;;;;12.23;7.55;;;358.60;1894.40;;;;;;4824367;29;20472;-74
2022/04/20 09:58:20;;;;;;;8.52;7.55;;;359.10;1843.20;;;;;;4821091;29;20068;-75
2022/04/20 10:00:47;;;;;;;10.65;8.52;;;384.70;1817.60;;;;;;4806142;29;20030;-75
2022/04/20 10:03:31;;;;;;;12.55;8.90;;;409.70;1766.40;;;;;;4806134;29;20027;-75
2022/04/20 10:05:59;;;;;;;8.90;8.00;;;409.60;1792.00;;;;;;4806126;29;20549;-75
2022/04/20 10:08:25;;;;;;;10.25;7.80;;;384.70;1792.00;;;;;;4806068;29;20114;-75
2022/04/20 10:10:54;;;;;;;9.27;8.27;;;384.50;1792.00;;;;;;4789735;29;20081;-74
2022/04/20 10:13:21;;;;;;;15.23;12.30;;;384.10;1766.40;;;;;;4805926;29;20470;-73
2022/04/20 10:16:10;;;;;;;10.25;9.23;;;359.30;1766.40;;;;;;4789725;29;20473;-74
2022/04/20 10:18:40;;;;;;;11.80;8.98;;;384.00;1792.00;;;;;;4814872;29;20042;-73
2022/04/20 10:21:12;;;;;;;12.60;9.40;;;409.80;1664.00;;;;;;4807710;29;20369;-75
2022/04/20 10:23:43;;;;;;;8.90;7.38;;;410.00;1766.40;;;;;;4824298;29;20045;-73
2022/04/20 10:26:10;;;;;;;11.13;8.50;;;410.40;1638.40;;;;;;4824071;29;20031;-73
2022/04/20 10:28:57;;;;;;;8.73;7.22;;;435.50;1715.20;;;;;;4809737;29;20034;-75
2022/04/20 10:34:04;;;;;;;7.75;6.95;;;435.60;1612.80;;;;;;5138715;27;20770;-76
2022/04/20 10:36:32;;;;;;;9.30;6.90;;;436.00;1536.00;;;;;;5131366;27;20026;-75
2022/04/20 10:39:22;;;;;;;8.30;7.38;;;460.80;1510.40;;;;;;5121512;28;20031;-74
2022/04/20 10:42:16;;;;;;;7.70;6.97;;;461.00;1587.20;;;;;;5128614;28;20015;-77
2022/04/20 10:44:49;;;;;;;7.47;6.78;;;461.50;1484.80;;;;;;5118195;28;20027;-76
2022/04/20 10:47:35;;;;;;;9.37;7.90;;;435.70;1510.40;;;;;;5129228;28;20023;-75
2022/04/20 10:50:13;;;;;;;8.88;7.22;;;435.40;1561.60;;;;;;5131671;28;20050;-75
2022/04/20 10:52:40;;;;;;;8.05;7.28;;;410.40;1587.20;;;;;;5130887;28;20031;-70
2022/04/20 10:55:06;;;;;;;21.27;11.57;;;410.10;1587.20;;;;;;5130118;28;20024;-74
2022/04/20 10:57:34;;;;;;;11.70;7.90;;;409.70;1612.80;;;;;;5131510;27;20046;-72
2022/04/20 11:00:25;;;;;;;11.90;8.45;;;384.80;1638.40;;;;;;5130805;28;20480;-73
2022/04/20 11:03:03;;;;;;;9.80;7.93;;;384.20;1638.40;;;;;;5124038;27;20064;-75
2022/04/20 11:05:29;;;;;;;16.70;13.10;;;384.00;1664.00;;;;;;5131654;28;20019;-72
2022/04/20 11:08:14;;;;;;;35.80;23.90;;;359.10;1689.60;;;;;;5130045;28;20020;-73
2022/04/20 11:10:42;;;;;;;12.07;10.00;;;358.90;1740.80;;;;;;5130027;28;20030;-73
2022/04/20 11:19:16;;;;;;;13.63;10.05;;;384.00;1715.20;;;;;;5052883;28;20122;-70
2022/04/20 11:22:05;;;;;;;10.57;9.23;;;384.70;1638.40;;;;;;5056959;28;20117;-72
2022/04/20 11:24:31;;;;;;;12.90;10.30;;;384.40;1664.00;;;;;;5047851;28;20022;-72
2022/04/20 11:27:00;;;;;;;14.15;10.40;;;384.40;1638.40;;;;;;5051544;28;20051;-74
2022/04/20 11:29:27;;;;;;;12.60;9.30;;;384.70;1638.40;;;;;;5039489;28;20433;-74
2022/04/20 11:31:58;;;;;;;11.07;9.43;;;384.50;1612.80;;;;;;5036753;28;20411;-74
2022/04/20 11:34:26;;;;;;;10.13;8.25;;;384.50;1587.20;;;;;;5056489;28;20524;-74
2022/04/20 11:37:00;;;;;;;11.10;8.30;;;384.10;1587.20;;;;;;5057939;28;20017;-74
2022/04/20 11:39:30;;;;;;;;;;;384.60;1561.60;;;;;;5060899;28;20052;-74
2022/04/20 11:42:02;;;;;;;11.90;9.40;;;409.90;1536.00;;;;;;5067287;28;20357;-74
2022/04/20 11:44:29;;;;;;;10.60;7.45;;;410.40;1510.40;;;;;;5059465;28;20057;-75
2022/04/20 11:47:01;;;;;;;8.77;7.25;;;435.60;1459.20;;;;;;5054078;28;20025;-74
2022/04/20 11:49:40;;;;;;;9.80;7.75;;;436.00;1408.00;;;;;;5054027;28;20059;-75
2022/04/20 11:52:09;;;;;;;11.82;7.32;;;460.80;1382.40;;;;;;5076656;28;20046;-73
2022/04/20 11:54:36;;;;;;;8.40;7.10;;;460.80;1382.40;;;;;;5116602;28;20413;-72
2022/04/20 11:57:03;;;;;;;7.65;6.85;;;435.70;1331.20;;;;;;5116496;28;20483;-73
2022/04/20 11:59:29;;;;;;;10.95;8.80;;;460.90;1356.80;;;;;;5116448;28;20032;-74
2022/04/20 12:01:55;;;;;;;7.70;6.85;;;461.30;1356.80;;;;;;5116681;28;20024;-74
2022/04/20 12:04:25;;;;;;;10.90;6.75;;;461.60;1356.80;;;;;;5116398;28;20227;-74
2022/04/20 12:06:56;;;;;;;9.38;8.05;;;460.90;1356.80;;;;;;5115970;28;20098;-73
2022/04/20 12:09:24;;;;;;;9.35;7.90;;;435.90;1382.40;;;;;;5115985;28;20447;-72
2022/04/20 12:11:54;;;;;;;11.77;7.72;;;460.80;1382.40;;;;;;5113246;28;20019;-72
2022/04/20 12:14:21;;;;;;;10.90;8.32;;;460.80;1356.80;;;;;;5115784;28;20472;-75
2022/04/20 12:16:48;;;;;;;8.90;7.85;;;461.00;1356.80;;;;;;5115654;28;20047;-73
2022/04/20 12:19:14;;;;;;;10.52;7.72;;;460.80;1382.40;;;;;;5115612;28;20102;-74
2022/04/20 12:21:42;;;;;;;14.18;8.20;;;460.90;1382.40;;;;;;5115916;28;20019;-72
2022/04/20 12:24:20;;;;;;;8.63;7.50;;;460.80;1356.80;;;;;;5116131;28;20031;-72
2022/04/20 12:26:49;;;;;;;7.93;7.13;;;461.00;1305.60;;;;;;5115968;28;20023;-72
2022/04/20 12:29:18;;;;;;;7.97;7.18;;;461.60;1305.60;;;;;;5116069;28;20408;-73
2022/04/20 12:31:45;;;;;;;11.65;7.68;;;461.50;1280.00;;;;;;5115903;28;20019;-74
2022/04/20 12:34:15;;;;;;;12.77;8.82;;;461.70;1305.60;;;;;;5097717;28;20057;-73
2022/04/20 12:36:58;;;;;;;10.32;8.48;;;461.70;1331.20;;;;;;5114828;28;20015;-74
2022/04/20 12:39:28;;;;;;;10.03;9.00;;;461.10;1331.20;;;;;;5115136;28;20393;-74
2022/04/20 12:42:15;;;;;;;9.02;8.02;;;486.40;1280.00;;;;;;5115205;28;20720;-75
2022/04/20 12:44:51;;;;;;;9.40;8.30;;;461.70;1280.00;;;;;;5095144;28;20028;-74
2022/04/20 12:47:17;;;;;;;10.35;8.38;;;461.00;1305.60;;;;;;5097419;28;20046;-74